createdAt,value
2023-09-27T13:49:47.948Z,24.80
2023-09-27T13:52:35.395Z,24.70
2023-09-27T13:55:22.854Z,24.70
2023-09-27T13:58:09.442Z,24.80
2023-09-27T14:00:56.226Z,24.80
2023-09-27T14:03:42.992Z,24.80
2023-09-27T14:06:31.320Z,24.80
2023-09-27T14:09:18.173Z,24.80
2023-09-27T14:12:06.269Z,24.90
2023-09-27T14:14:52.931Z,24.90
2023-09-27T14:17:39.993Z,24.80
2023-09-27T14:20:26.620Z,24.80
2023-09-27T14:23:14.687Z,24.70
2023-09-27T14:26:01.072Z,24.70
2023-09-27T14:28:47.668Z,24.70
2023-09-27T14:31:34.314Z,24.80
2023-09-27T14:34:21.002Z,24.80
2023-09-27T14:37:08.928Z,24.90
2023-09-27T14:39:57.512Z,24.90
2023-09-27T14:42:44.661Z,24.80
2023-09-27T14:45:32.950Z,24.90
2023-09-27T14:48:19.561Z,24.80
2023-09-27T14:51:06.007Z,24.80
2023-09-27T14:53:53.151Z,24.70
2023-09-27T14:56:41.566Z,24.70
2023-09-27T14:59:29.413Z,24.80
2023-09-27T15:02:15.673Z,24.70
2023-09-27T15:05:04.386Z,24.70
2023-09-27T15:07:51.339Z,24.70
2023-09-27T15:10:39.031Z,24.70
2023-09-27T15:13:27.483Z,24.70
2023-09-27T15:16:15.118Z,24.70
2023-09-27T15:19:02.046Z,24.70
2023-09-27T15:21:48.701Z,24.70
2023-09-27T15:24:38.849Z,24.70
2023-09-27T15:27:25.772Z,24.70
2023-09-27T15:30:14.196Z,24.70
2023-09-27T15:33:01.199Z,24.60
2023-09-27T15:35:53.806Z,24.60
2023-09-27T15:38:44.512Z,24.60
2023-09-27T15:41:31.250Z,24.50
2023-09-27T15:44:17.607Z,24.50
2023-09-27T15:47:05.922Z,24.50
2023-09-27T15:49:52.726Z,24.50
2023-09-27T15:52:39.617Z,24.50
2023-09-27T15:55:29.593Z,24.40
2023-09-27T15:58:18.227Z,24.40
2023-09-27T16:01:07.276Z,24.40
2023-09-27T16:03:59.356Z,24.40
2023-09-27T16:06:47.131Z,24.50
2023-09-27T16:09:37.264Z,24.40
2023-09-27T16:12:26.849Z,24.40
2023-09-27T16:15:14.435Z,24.40
2023-09-27T16:18:01.096Z,24.40
2023-09-27T16:20:49.381Z,24.40
2023-09-27T16:23:35.945Z,24.30
2023-09-27T16:26:22.338Z,24.40
2023-09-27T16:29:09.703Z,24.40
2023-09-27T16:31:56.810Z,24.50
2023-09-27T16:34:43.534Z,24.50
2023-09-27T16:37:31.380Z,24.60
2023-09-27T16:40:17.945Z,24.60
2023-09-27T16:43:06.367Z,24.50
2023-09-27T16:45:52.639Z,24.40
2023-09-27T16:48:39.766Z,24.40
2023-09-27T16:51:26.313Z,24.30
2023-09-27T16:54:15.424Z,24.20
2023-09-27T16:57:02.125Z,24.20
2023-09-27T16:59:50.854Z,24.20
2023-09-27T17:02:37.738Z,24.10
2023-09-27T17:05:24.456Z,24.00
2023-09-27T17:08:10.759Z,24.00
2023-09-27T17:10:58.915Z,23.90
2023-09-27T17:13:45.435Z,23.80
2023-09-27T17:16:31.789Z,23.80
2023-09-27T17:19:23.776Z,23.70
2023-09-27T17:22:10.506Z,23.70
2023-09-27T17:24:56.914Z,23.60
2023-09-27T17:27:47.200Z,23.60
2023-09-27T17:30:33.950Z,23.50
2023-09-27T17:33:20.787Z,23.40
2023-09-27T17:36:07.906Z,23.40
2023-09-27T17:38:54.392Z,23.30
2023-09-27T17:41:41.223Z,23.30
2023-09-27T17:44:28.931Z,23.20
2023-09-27T17:47:15.491Z,23.20
2023-09-27T17:50:02.183Z,23.10
2023-09-27T17:52:48.498Z,23.10
2023-09-27T17:55:34.954Z,23.10
2023-09-27T17:58:21.556Z,23.10
2023-09-27T18:01:13.925Z,23.00
2023-09-27T18:04:00.289Z,23.00
2023-09-27T18:06:46.727Z,22.90
2023-09-27T18:09:36.185Z,22.90
2023-09-27T18:12:22.939Z,22.80
2023-09-27T18:15:21.901Z,22.80
2023-09-27T18:18:13.716Z,22.80
2023-09-27T18:21:00.556Z,22.70
2023-09-27T18:23:49.618Z,22.70
2023-09-27T18:26:36.026Z,22.70
2023-09-27T18:29:22.870Z,22.70
2023-09-27T18:32:10.307Z,22.60
2023-09-27T18:34:58.159Z,22.60
2023-09-27T18:37:44.729Z,22.60
2023-09-27T18:40:31.117Z,22.50
2023-09-27T18:43:19.282Z,22.50
2023-09-27T18:46:06.984Z,22.50
2023-09-27T18:48:54.014Z,22.50
2023-09-27T18:51:41.999Z,22.40
2023-09-27T18:54:31.148Z,22.40
2023-09-27T18:57:17.680Z,22.40
2023-09-27T19:00:04.429Z,22.30
2023-09-27T19:02:50.866Z,22.20
2023-09-27T19:05:37.166Z,22.20
2023-09-27T19:08:27.396Z,22.30
2023-09-27T19:11:21.573Z,22.20
2023-09-27T19:14:08.172Z,22.20
2023-09-27T19:16:54.806Z,22.20
2023-09-27T19:19:44.765Z,22.10
2023-09-27T19:22:34.226Z,22.00
2023-09-27T19:25:22.398Z,22.00
2023-09-27T19:28:09.008Z,21.90
2023-09-27T19:30:55.705Z,21.90
2023-09-27T19:33:43.449Z,21.90
2023-09-27T19:36:30.088Z,21.80
2023-09-27T19:39:17.987Z,21.80
2023-09-27T19:42:09.884Z,21.70
2023-09-27T19:45:00.191Z,21.60
2023-09-27T19:47:47.786Z,21.60
2023-09-27T19:50:41.005Z,21.50
2023-09-27T19:53:28.348Z,21.50
2023-09-27T19:56:16.120Z,21.50
2023-09-27T19:59:16.916Z,21.40
2023-09-27T20:02:11.117Z,21.40
2023-09-27T20:05:04.173Z,21.30
2023-09-27T20:07:52.752Z,21.20
2023-09-27T20:10:41.725Z,21.30
2023-09-27T20:13:40.840Z,21.20
2023-09-27T20:16:50.904Z,21.30
2023-09-27T20:19:45.617Z,21.20
2023-09-27T20:22:39.385Z,21.20
2023-09-27T20:25:27.774Z,21.20
2023-09-27T20:28:15.832Z,21.10
